Novo Cruzeiro, Brazil
Current Conditions -  °F | °C
As of 9:00 PM on Friday 19 Dec 2014 (Local Time) from SBMK Reporting Station
Thunderstorm Thunderstorm  
Wind Chill: 77°   Ceiling: 10000
Heat Index: 79°   Visibility: 6mi
Dew Point: 66°   Wind: 8mph
Humidity: 69%   Direction: 150°SSE
Pressure: 29.88"   Gusts: NA
Location:  17.48°S, 41.89°W
Report Text: SBMK 192300Z 15007KT 9999 TS VCSH FEW040CB SCT050 OVC100 25/19 Q1012
Loading
Personal Weather Stations






























Interactive Weather Map New forecast layout! Learn more

10-Day Weather Forecast

Advertisements
Track Severe Weather on mobile